sensor_id;sensor_type;location;lat;lon;timestamp;pressure;altitude;pressure_sealevel;temperature;humidity
15263;BME280;7733;51.554;13.590;2022-09-21T00:01:18;101282.66;;;11.03;100.00
15263;BME280;7733;51.554;13.590;2022-09-21T00:03:45;101277.41;;;10.85;100.00
15263;BME280;7733;51.554;13.590;2022-09-21T00:06:16;101288.78;;;10.90;100.00
15263;BME280;7733;51.554;13.590;2022-09-21T00:08:43;101294.84;;;11.25;100.00
15263;BME280;7733;51.554;13.590;2022-09-21T00:11:18;101284.38;;;11.00;100.00
15263;BME280;7733;51.554;13.590;2022-09-21T00:13:45;101289.59;;;11.28;100.00
15263;BME280;7733;51.554;13.590;2022-09-21T00:16:13;101289.59;;;11.19;100.00
15263;BME280;7733;51.554;13.590;2022-09-21T00:18:39;101289.63;;;11.10;100.00
15263;BME280;7733;51.554;13.590;2022-09-21T00:21:12;101295.78;;;11.02;100.00
15263;BME280;7733;51.554;13.590;2022-09-21T00:23:40;101290.50;;;11.00;100.00
15263;BME280;7733;51.554;13.590;2022-09-21T00:28:33;101292.28;;;10.92;100.00
15263;BME280;7733;51.554;13.590;2022-09-21T00:31:08;101302.78;;;10.77;100.00
15263;BME280;7733;51.554;13.590;2022-09-21T00:33:37;101297.50;;;10.95;100.00
15263;BME280;7733;51.554;13.590;2022-09-21T00:36:05;101301.00;;;11.00;100.00
15263;BME280;7733;51.554;13.590;2022-09-21T00:38:33;101301.91;;;10.90;100.00
15263;BME280;7733;51.554;13.590;2022-09-21T00:40:59;101304.50;;;11.01;100.00
15263;BME280;7733;51.554;13.590;2022-09-21T00:43:25;101296.66;;;10.88;100.00
15263;BME280;7733;51.554;13.590;2022-09-21T00:46:01;101301.91;;;10.90;100.00
15263;BME280;7733;51.554;13.590;2022-09-21T00:48:28;101309.78;;;10.69;100.00
15263;BME280;7733;51.554;13.590;2022-09-21T00:50:58;101295.78;;;10.86;100.00
15263;BME280;7733;51.554;13.590;2022-09-21T00:53:27;101308.91;;;10.82;100.00
15263;BME280;7733;51.554;13.590;2022-09-21T00:55:56;101301.91;;;10.93;100.00
15263;BME280;7733;51.554;13.590;2022-09-21T00:58:31;101309.78;;;11.02;100.00
15263;BME280;7733;51.554;13.590;2022-09-21T01:01:00;101308.00;;;11.09;100.00
15263;BME280;7733;51.554;13.590;2022-09-21T01:03:26;101303.66;;;11.06;100.00
15263;BME280;7733;51.554;13.590;2022-09-21T01:05:53;101315.88;;;10.96;100.00
15263;BME280;7733;51.554;13.590;2022-09-21T01:08:20;101308.03;;;10.78;100.00
15263;BME280;7733;51.554;13.590;2022-09-21T01:11:15;101308.03;;;10.71;100.00
15263;BME280;7733;51.554;13.590;2022-09-21T01:26:04;101316.75;;;10.98;100.00
15263;BME280;7733;51.554;13.590;2022-09-21T01:31:50;101324.66;;;10.91;100.00
15263;BME280;7733;51.554;13.590;2022-09-21T01:34:43;101314.16;;;11.03;100.00
15263;BME280;7733;51.554;13.590;2022-09-21T01:37:18;101316.78;;;10.86;100.00
15263;BME280;7733;51.554;13.590;2022-09-21T01:39:51;101315.00;;;10.99;100.00
15263;BME280;7733;51.554;13.590;2022-09-21T01:42:20;101310.66;;;10.77;100.00
15263;BME280;7733;51.554;13.590;2022-09-21T01:44:48;101308.91;;;10.76;100.00
15263;BME280;7733;51.554;13.590;2022-09-21T01:47:16;101311.50;;;11.12;100.00
15263;BME280;7733;51.554;13.590;2022-09-21T01:49:49;101319.41;;;11.06;100.00
15263;BME280;7733;51.554;13.590;2022-09-21T01:52:39;101319.38;;;10.79;100.00
15263;BME280;7733;51.554;13.590;2022-09-21T01:55:20;101315.00;;;10.81;100.00
15263;BME280;7733;51.554;13.590;2022-09-21T01:58:17;101316.75;;;11.08;100.00
15263;BME280;7733;51.554;13.590;2022-09-21T02:00:47;101321.09;;;11.19;100.00
15263;BME280;7733;51.554;13.590;2022-09-21T02:05:44;101335.13;;;11.31;100.00
15263;BME280;7733;51.554;13.590;2022-09-21T02:08:10;101322.84;;;11.30;100.00
15263;BME280;7733;51.554;13.590;2022-09-21T02:10:44;101321.13;;;11.22;100.00
15263;BME280;7733;51.554;13.590;2022-09-21T02:13:13;101324.63;;;11.00;100.00
15263;BME280;7733;51.554;13.590;2022-09-21T02:16:37;101332.50;;;10.74;100.00
15263;BME280;7733;51.554;13.590;2022-09-21T02:19:20;101330.78;;;10.85;100.00
15263;BME280;7733;51.554;13.590;2022-09-21T02:24:54;101332.50;;;10.97;100.00
15263;BME280;7733;51.554;13.590;2022-09-21T02:28:07;101337.78;;;11.02;100.00
15263;BME280;7733;51.554;13.590;2022-09-21T02:30:37;101338.66;;;11.22;100.00
15263;BME280;7733;51.554;13.590;2022-09-21T02:33:20;101331.63;;;10.80;100.00
15263;BME280;7733;51.554;13.590;2022-09-21T02:36:09;101336.00;;;10.81;100.00
15263;BME280;7733;51.554;13.590;2022-09-21T02:38:49;101339.53;;;10.68;100.00
15263;BME280;7733;51.554;13.590;2022-09-21T02:44:25;101341.25;;;10.78;100.00
15263;BME280;7733;51.554;13.590;2022-09-21T02:47:26;101340.34;;;10.41;100.00
15263;BME280;7733;51.554;13.590;2022-09-21T02:49:56;101338.63;;;10.47;100.00
15263;BME280;7733;51.554;13.590;2022-09-21T02:52:25;101344.75;;;10.78;100.00
15263;BME280;7733;51.554;13.590;2022-09-21T02:54:53;101334.25;;;10.98;100.00
15263;BME280;7733;51.554;13.590;2022-09-21T02:57:22;101341.28;;;11.08;100.00
15263;BME280;7733;51.554;13.590;2022-09-21T02:59:49;101338.63;;;11.11;100.00
15263;BME280;7733;51.554;13.590;2022-09-21T03:02:15;101342.13;;;10.74;100.00
15263;BME280;7733;51.554;13.590;2022-09-21T03:04:44;101352.63;;;10.61;100.00
15263;BME280;7733;51.554;13.590;2022-09-21T03:07:14;101351.75;;;10.62;100.00
15263;BME280;7733;51.554;13.590;2022-09-21T03:09:39;101349.09;;;10.53;100.00
15263;BME280;7733;51.554;13.590;2022-09-21T03:12:05;101359.47;;;10.20;100.00
15263;BME280;7733;51.554;13.590;2022-09-21T03:14:31;101358.56;;;10.07;100.00
15263;BME280;7733;51.554;13.590;2022-09-21T03:16:58;101355.97;;;10.09;100.00
15263;BME280;7733;51.554;13.590;2022-09-21T03:19:23;101356.06;;;10.36;100.00
15263;BME280;7733;51.554;13.590;2022-09-21T03:21:50;101363.09;;;10.52;100.00
15263;BME280;7733;51.554;13.590;2022-09-21T03:24:16;101355.19;;;10.34;100.00
15263;BME280;7733;51.554;13.590;2022-09-21T03:27:01;101359.47;;;10.14;100.00
15263;BME280;7733;51.554;13.590;2022-09-21T03:29:27;101352.56;;;10.39;100.00
15263;BME280;7733;51.554;13.590;2022-09-21T03:31:53;101350.81;;;10.33;100.00
15263;BME280;7733;51.554;13.590;2022-09-21T03:34:20;101363.06;;;10.34;100.00
15263;BME280;7733;51.554;13.590;2022-09-21T03:36:46;101354.22;;;10.07;100.00
15263;BME280;7733;51.554;13.590;2022-09-21T03:39:13;101359.44;;;10.01;100.00
15263;BME280;7733;51.554;13.590;2022-09-21T03:41:39;101363.84;;;10.16;100.00
15263;BME280;7733;51.554;13.590;2022-09-21T03:44:04;101361.13;;;9.90;100.00
15263;BME280;7733;51.554;13.590;2022-09-21T03:46:30;101369.94;;;10.11;100.00
15263;BME280;7733;51.554;13.590;2022-09-21T03:49:00;101362.88;;;9.91;100.00
15263;BME280;7733;51.554;13.590;2022-09-21T03:51:26;101376.88;;;9.95;100.00
15263;BME280;7733;51.554;13.590;2022-09-21T03:53:52;101362.00;;;9.89;100.00
15263;BME280;7733;51.554;13.590;2022-09-21T03:56:17;101358.44;;;9.80;100.00
15263;BME280;7733;51.554;13.590;2022-09-21T03:58:43;101374.25;;;9.98;100.00
15263;BME280;7733;51.554;13.590;2022-09-21T04:01:09;101369.06;;;10.02;100.00
15263;BME280;7733;51.554;13.590;2022-09-21T04:03:34;101364.63;;;9.91;100.00
15263;BME280;7733;51.554;13.590;2022-09-21T04:06:07;101381.16;;;9.79;100.00
15263;BME280;7733;51.554;13.590;2022-09-21T04:08:33;101383.84;;;9.94;100.00
15263;BME280;7733;51.554;13.590;2022-09-21T04:10:58;101380.34;;;9.89;100.00
15263;BME280;7733;51.554;13.590;2022-09-21T04:13:24;101383.75;;;9.73;100.00
15263;BME280;7733;51.554;13.590;2022-09-21T04:15:50;101383.78;;;9.79;100.00
15263;BME280;7733;51.554;13.590;2022-09-21T04:18:15;101387.34;;;9.96;100.00
15263;BME280;7733;51.554;13.590;2022-09-21T04:20:41;101389.00;;;9.76;100.00
15263;BME280;7733;51.554;13.590;2022-09-21T04:23:07;101386.22;;;9.45;100.00
15263;BME280;7733;51.554;13.590;2022-09-21T04:25:32;101389.09;;;9.91;100.00
15263;BME280;7733;51.554;13.590;2022-09-21T04:27:58;101385.44;;;9.62;100.00
15263;BME280;7733;51.554;13.590;2022-09-21T04:30:24;101394.28;;;9.82;100.00
15263;BME280;7733;51.554;13.590;2022-09-21T04:32:49;101389.75;;;9.60;100.00
15263;BME280;7733;51.554;13.590;2022-09-21T04:35:15;101398.44;;;9.47;100.00
15263;BME280;7733;51.554;13.590;2022-09-21T04:37:41;101395.81;;;9.47;100.00
15263;BME280;7733;51.554;13.590;2022-09-21T04:40:07;101396.69;;;9.44;100.00
15263;BME280;7733;51.554;13.590;2022-09-21T04:42:33;101387.00;;;9.38;100.00
15263;BME280;7733;51.554;13.590;2022-09-21T04:44:59;101385.41;;;9.59;100.00
15263;BME280;7733;51.554;13.590;2022-09-21T04:47:28;101397.63;;;9.60;100.00
15263;BME280;7733;51.554;13.590;2022-09-21T04:49:54;101400.25;;;9.60;100.00
15263;BME280;7733;51.554;13.590;2022-09-21T04:52:20;101394.09;;;9.49;100.00
15263;BME280;7733;51.554;13.590;2022-09-21T04:54:46;101398.56;;;9.69;100.00
15263;BME280;7733;51.554;13.590;2022-09-21T04:57:13;101397.59;;;9.52;100.00
15263;BME280;7733;51.554;13.590;2022-09-21T04:59:39;101413.25;;;9.41;100.00
15263;BME280;7733;51.554;13.590;2022-09-21T05:02:05;101416.03;;;9.70;100.00
15263;BME280;7733;51.554;13.590;2022-09-21T05:04:30;101410.78;;;9.66;100.00
15263;BME280;7733;51.554;13.590;2022-09-21T05:06:56;101410.72;;;9.57;100.00
15263;BME280;7733;51.554;13.590;2022-09-21T05:09:24;101420.28;;;9.52;100.00
15263;BME280;7733;51.554;13.590;2022-09-21T05:12:08;101426.19;;;9.22;100.00
15263;BME280;7733;51.554;13.590;2022-09-21T05:14:34;101426.44;;;9.58;100.00
15263;BME280;7733;51.554;13.590;2022-09-21T05:17:00;101422.06;;;9.59;100.00
15263;BME280;7733;51.554;13.590;2022-09-21T05:19:25;101428.81;;;9.23;100.00
15263;BME280;7733;51.554;13.590;2022-09-21T05:21:51;101436.91;;;9.58;100.00
15263;BME280;7733;51.554;13.590;2022-09-21T05:24:16;101430.75;;;9.49;100.00
15263;BME280;7733;51.554;13.590;2022-09-21T05:26:42;101430.75;;;9.52;100.00
15263;BME280;7733;51.554;13.590;2022-09-21T05:29:08;101441.13;;;9.39;100.00
15263;BME280;7733;51.554;13.590;2022-09-21T05:34:52;101449.13;;;9.59;100.00
15263;BME280;7733;51.554;13.590;2022-09-21T05:38:00;101446.38;;;9.39;100.00
15263;BME280;7733;51.554;13.590;2022-09-21T05:40:29;101448.22;;;9.50;100.00
15263;BME280;7733;51.554;13.590;2022-09-21T05:42:55;101449.06;;;9.47;100.00
15263;BME280;7733;51.554;13.590;2022-09-21T05:45:21;101455.94;;;9.33;100.00
15263;BME280;7733;51.554;13.590;2022-09-21T05:48:06;101459.59;;;9.56;100.00
15263;BME280;7733;51.554;13.590;2022-09-21T05:55:54;101457.63;;;9.28;100.00
15263;BME280;7733;51.554;13.590;2022-09-21T05:59:04;101465.63;;;9.41;100.00
15263;BME280;7733;51.554;13.590;2022-09-21T06:04:36;101463.16;;;9.63;100.00
15263;BME280;7733;51.554;13.590;2022-09-21T06:07:02;101463.19;;;9.69;100.00
15263;BME280;7733;51.554;13.590;2022-09-21T06:09:28;101469.22;;;9.59;100.00
15263;BME280;7733;51.554;13.590;2022-09-21T06:11:53;101461.28;;;9.43;100.00
15263;BME280;7733;51.554;13.590;2022-09-21T06:14:19;101465.56;;;9.38;100.00
15263;BME280;7733;51.554;13.590;2022-09-21T06:16:49;101463.97;;;9.59;100.00
15263;BME280;7733;51.554;13.590;2022-09-21T06:19:15;101466.69;;;9.66;100.00
15263;BME280;7733;51.554;13.590;2022-09-21T06:21:41;101456.19;;;9.65;100.00
15263;BME280;7733;51.554;13.590;2022-09-21T06:24:07;101457.00;;;9.58;100.00
15263;BME280;7733;51.554;13.590;2022-09-21T06:26:33;101466.69;;;9.69;100.00
15263;BME280;7733;51.554;13.590;2022-09-21T06:28:58;101471.75;;;9.43;100.00
15263;BME280;7733;51.554;13.590;2022-09-21T06:31:26;101471.09;;;9.75;100.00
15263;BME280;7733;51.554;13.590;2022-09-21T06:33:52;101471.03;;;9.66;100.00
15263;BME280;7733;51.554;13.590;2022-09-21T06:36:17;101468.28;;;9.48;100.00
15263;BME280;7733;51.554;13.590;2022-09-21T06:38:43;101475.44;;;9.74;100.00
15263;BME280;7733;51.554;13.590;2022-09-21T06:41:09;101466.81;;;9.86;100.00
15263;BME280;7733;51.554;13.590;2022-09-21T06:43:35;101478.19;;;9.91;100.00
15263;BME280;7733;51.554;13.590;2022-09-21T06:46:01;101472.94;;;9.91;100.00
15263;BME280;7733;51.554;13.590;2022-09-21T06:48:29;101483.41;;;9.88;100.00
15263;BME280;7733;51.554;13.590;2022-09-21T06:51:04;101469.50;;;10.00;100.00
15263;BME280;7733;51.554;13.590;2022-09-21T06:53:32;101469.53;;;10.01;100.00
15263;BME280;7733;51.554;13.590;2022-09-21T06:56:04;101474.66;;;9.83;100.00
15263;BME280;7733;51.554;13.590;2022-09-21T06:58:31;101469.53;;;10.03;100.00
15263;BME280;7733;51.554;13.590;2022-09-21T07:01:04;101470.44;;;10.08;100.00
15263;BME280;7733;51.554;13.590;2022-09-21T07:03:31;101478.44;;;10.31;100.00
15263;BME280;7733;51.554;13.590;2022-09-21T07:05:57;101478.44;;;10.31;100.00
15263;BME280;7733;51.554;13.590;2022-09-21T07:08:22;101482.69;;;10.18;100.00
15263;BME280;7733;51.554;13.590;2022-09-21T07:10:48;101481.06;;;10.35;100.00
15263;BME280;7733;51.554;13.590;2022-09-21T07:13:14;101482.88;;;10.41;100.00
15263;BME280;7733;51.554;13.590;2022-09-21T07:15:42;101487.25;;;10.48;100.00
15263;BME280;7733;51.554;13.590;2022-09-21T07:18:13;101489.88;;;10.50;100.00
15263;BME280;7733;51.554;13.590;2022-09-21T07:20:41;101498.56;;;10.33;100.00
15263;BME280;7733;51.554;13.590;2022-09-21T07:23:17;101496.09;;;10.69;100.00
15263;BME280;7733;51.554;13.590;2022-09-21T07:25:45;101496.97;;;10.75;100.00
15263;BME280;7733;51.554;13.590;2022-09-21T07:28:14;101496.09;;;10.78;100.00
15263;BME280;7733;51.554;13.590;2022-09-21T07:30:40;101497.84;;;10.74;100.00
15263;BME280;7733;51.554;13.590;2022-09-21T07:33:06;101503.16;;;10.88;100.00
15263;BME280;7733;51.554;13.590;2022-09-21T07:35:33;101503.19;;;11.03;100.00
15263;BME280;7733;51.554;13.590;2022-09-21T07:38:00;101504.94;;;11.13;100.00
15263;BME280;7733;51.554;13.590;2022-09-21T07:40:28;101500.53;;;10.94;100.00
15263;BME280;7733;51.554;13.590;2022-09-21T07:42:58;101499.72;;;11.22;100.00
15263;BME280;7733;51.554;13.590;2022-09-21T07:45:25;101498.84;;;11.36;100.00
15263;BME280;7733;51.554;13.590;2022-09-21T07:47:51;101495.34;;;11.50;100.00
15263;BME280;7733;51.554;13.590;2022-09-21T07:50:20;101503.25;;;11.64;100.00
15263;BME280;7733;51.554;13.590;2022-09-21T07:52:46;101501.47;;;11.36;100.00
15263;BME280;7733;51.554;13.590;2022-09-21T07:55:12;101491.81;;;11.74;100.00
15263;BME280;7733;51.554;13.590;2022-09-21T07:57:38;101485.72;;;11.62;100.00
15263;BME280;7733;51.554;13.590;2022-09-21T08:00:22;101497.09;;;11.91;100.00
15263;BME280;7733;51.554;13.590;2022-09-21T08:02:48;101489.22;;;11.93;100.00
15263;BME280;7733;51.554;13.590;2022-09-21T08:05:14;101497.09;;;12.03;100.00
15263;BME280;7733;51.554;13.590;2022-09-21T08:07:40;101498.84;;;11.91;100.00
15263;BME280;7733;51.554;13.590;2022-09-21T08:10:07;101499.63;;;12.35;100.00
15263;BME280;7733;51.554;13.590;2022-09-21T08:12:33;101501.34;;;12.39;100.00
15263;BME280;7733;51.554;13.590;2022-09-21T08:14:58;101506.63;;;12.36;100.00
15263;BME280;7733;51.554;13.590;2022-09-21T08:17:24;101510.13;;;12.44;100.00
15263;BME280;7733;51.554;13.590;2022-09-21T08:19:50;101499.50;;;12.60;100.00
15263;BME280;7733;51.554;13.590;2022-09-21T08:22:15;101499.47;;;12.70;100.00
15263;BME280;7733;51.554;13.590;2022-09-21T08:24:41;101503.84;;;12.74;100.00
15263;BME280;7733;51.554;13.590;2022-09-21T08:27:09;101493.28;;;12.77;100.00
15263;BME280;7733;51.554;13.590;2022-09-21T08:29:35;101502.91;;;12.86;100.00
15263;BME280;7733;51.554;13.590;2022-09-21T08:32:01;101499.41;;;12.87;100.00
15263;BME280;7733;51.554;13.590;2022-09-21T08:34:27;101496.69;;;12.98;100.00
15263;BME280;7733;51.554;13.590;2022-09-21T08:36:52;101501.94;;;13.05;100.00
15263;BME280;7733;51.554;13.590;2022-09-21T08:39:18;101498.19;;;13.40;100.00
15263;BME280;7733;51.554;13.590;2022-09-21T08:42:20;101496.50;;;13.31;100.00
15263;BME280;7733;51.554;13.590;2022-09-21T08:45:33;101493.66;;;13.57;100.00
15263;BME280;7733;51.554;13.590;2022-09-21T08:47:57;101496.13;;;13.76;100.00
15263;BME280;7733;51.554;13.590;2022-09-21T08:50:59;101507.50;;;13.79;100.00
15263;BME280;7733;51.554;13.590;2022-09-21T08:53:43;101502.00;;;14.05;100.00
15263;BME280;7733;51.554;13.590;2022-09-21T08:56:12;101496.88;;;13.90;100.00
15263;BME280;7733;51.554;13.590;2022-09-21T08:58:38;101501.13;;;14.06;100.00
15263;BME280;7733;51.554;13.590;2022-09-21T09:02:15;101505.53;;;14.04;100.00
15263;BME280;7733;51.554;13.590;2022-09-21T09:05:04;101499.19;;;14.22;100.00
15263;BME280;7733;51.554;13.590;2022-09-21T09:08:07;101491.59;;;13.90;100.00
15263;BME280;7733;51.554;13.590;2022-09-21T09:10:43;101501.63;;;14.37;100.00
15263;BME280;7733;51.554;13.590;2022-09-21T09:19:49;101482.84;;;14.66;100.00
15263;BME280;7733;51.554;13.590;2022-09-21T09:22:25;101487.41;;;14.52;100.00
15263;BME280;7733;51.554;13.590;2022-09-21T09:24:58;101490.75;;;14.66;99.67
15263;BME280;7733;51.554;13.590;2022-09-21T09:27:33;101486.59;;;14.48;98.95
15263;BME280;7733;51.554;13.590;2022-09-21T09:30:23;101493.81;;;14.99;97.59
15263;BME280;7733;51.554;13.590;2022-09-21T09:35:48;101488.03;;;15.32;97.09
15263;BME280;7733;51.554;13.590;2022-09-21T09:38:23;101486.84;;;15.51;95.19
15263;BME280;7733;51.554;13.590;2022-09-21T09:44:11;101486.06;;;15.46;94.34
15263;BME280;7733;51.554;13.590;2022-09-21T09:47:30;101489.78;;;15.33;96.37
15263;BME280;7733;51.554;13.590;2022-09-21T09:50:12;101489.88;;;15.27;93.15
15263;BME280;7733;51.554;13.590;2022-09-21T09:52:46;101492.59;;;15.24;94.60
15263;BME280;7733;51.554;13.590;2022-09-21T09:55:25;101489.69;;;15.38;93.44
15263;BME280;7733;51.554;13.590;2022-09-21T09:57:54;101485.97;;;15.51;92.69
15263;BME280;7733;51.554;13.590;2022-09-21T10:00:21;101488.47;;;15.60;91.98
15263;BME280;7733;51.554;13.590;2022-09-21T10:02:56;101483.56;;;15.36;91.28
15263;BME280;7733;51.554;13.590;2022-09-21T10:05:32;101485.94;;;15.52;91.71
15263;BME280;7733;51.554;13.590;2022-09-21T10:07:59;101484.50;;;15.33;92.10
15263;BME280;7733;51.554;13.590;2022-09-21T10:13:01;101482.81;;;15.81;89.63
15263;BME280;7733;51.554;13.590;2022-09-21T10:15:28;101476.63;;;15.84;89.00
15263;BME280;7733;51.554;13.590;2022-09-21T10:18:14;101474.47;;;16.04;89.83
15263;BME280;7733;51.554;13.590;2022-09-21T10:20:57;101474.34;;;16.10;89.44
15263;BME280;7733;51.554;13.590;2022-09-21T10:23:26;101479.75;;;16.04;88.85
15263;BME280;7733;51.554;13.590;2022-09-21T10:26:09;101472.09;;;15.89;91.54
15263;BME280;7733;51.554;13.590;2022-09-21T10:28:53;101475.19;;;15.65;90.10
15263;BME280;7733;51.554;13.590;2022-09-21T10:31:28;101472.88;;;15.94;90.02
15263;BME280;7733;51.554;13.590;2022-09-21T10:34:09;101470.75;;;15.67;89.51
15263;BME280;7733;51.554;13.590;2022-09-21T10:36:37;101470.00;;;15.56;90.88
15263;BME280;7733;51.554;13.590;2022-09-21T10:39:31;101470.78;;;15.65;90.02
15263;BME280;7733;51.554;13.590;2022-09-21T10:42:01;101464.03;;;15.95;88.14
15263;BME280;7733;51.554;13.590;2022-09-21T10:44:46;101471.50;;;16.20;86.39
15263;BME280;7733;51.554;13.590;2022-09-21T10:47:41;101459.63;;;16.39;81.49
15263;BME280;7733;51.554;13.590;2022-09-21T10:50:27;101457.69;;;16.49;81.70
15263;BME280;7733;51.554;13.590;2022-09-21T10:52:59;101462.84;;;16.55;82.64
15263;BME280;7733;51.554;13.590;2022-09-21T10:55:28;101454.47;;;16.76;83.30
15263;BME280;7733;51.554;13.590;2022-09-21T10:57:55;101457.44;;;16.59;83.81
15263;BME280;7733;51.554;13.590;2022-09-21T11:02:51;101462.63;;;16.24;86.70
15263;BME280;7733;51.554;13.590;2022-09-21T11:05:22;101456.84;;;16.47;86.19
15263;BME280;7733;51.554;13.590;2022-09-21T11:08:14;101456.66;;;16.54;87.54
15263;BME280;7733;51.554;13.590;2022-09-21T11:10:48;101449.34;;;16.68;83.06
15263;BME280;7733;51.554;13.590;2022-09-21T11:13:30;101447.59;;;17.06;82.47
15263;BME280;7733;51.554;13.590;2022-09-21T11:16:15;101441.91;;;17.21;81.80
15263;BME280;7733;51.554;13.590;2022-09-21T11:22:13;101445.50;;;16.40;84.75
15263;BME280;7733;51.554;13.590;2022-09-21T11:24:58;101446.03;;;16.56;84.52
15263;BME280;7733;51.554;13.590;2022-09-21T11:27:36;101431.38;;;16.81;82.15
15263;BME280;7733;51.554;13.590;2022-09-21T11:30:10;101444.78;;;17.12;81.34
15263;BME280;7733;51.554;13.590;2022-09-21T11:33:02;101445.88;;;17.39;82.40
15263;BME280;7733;51.554;13.590;2022-09-21T11:35:46;101444.78;;;17.12;81.42
15263;BME280;7733;51.554;13.590;2022-09-21T11:38:54;101439.75;;;17.00;80.99
15263;BME280;7733;51.554;13.590;2022-09-21T11:41:30;101443.50;;;16.91;82.38
15263;BME280;7733;51.554;13.590;2022-09-21T11:44:25;101438.84;;;17.01;81.67
15263;BME280;7733;51.554;13.590;2022-09-21T11:47:09;101435.59;;;17.27;81.10
15263;BME280;7733;51.554;13.590;2022-09-21T11:50:02;101434.13;;;16.77;83.36
15263;BME280;7733;51.554;13.590;2022-09-21T11:53:17;101442.81;;;16.43;82.26
15263;BME280;7733;51.554;13.590;2022-09-21T11:56:05;101436.16;;;16.24;81.47
15263;BME280;7733;51.554;13.590;2022-09-21T11:59:10;101435.09;;;16.31;82.00
15263;BME280;7733;51.554;13.590;2022-09-21T12:05:09;101432.97;;;16.48;83.34
15263;BME280;7733;51.554;13.590;2022-09-21T12:08:17;101424.75;;;16.60;83.66
15263;BME280;7733;51.554;13.590;2022-09-21T12:11:32;101422.06;;;16.63;84.15
15263;BME280;7733;51.554;13.590;2022-09-21T12:14:29;101420.44;;;16.95;81.60
15263;BME280;7733;51.554;13.590;2022-09-21T12:17:22;101423.41;;;16.83;81.40
15263;BME280;7733;51.554;13.590;2022-09-21T12:20:56;101420.69;;;17.21;82.39
15263;BME280;7733;51.554;13.590;2022-09-21T12:23:07;101415.97;;;16.97;78.46
15263;BME280;7733;51.554;13.590;2022-09-21T12:25:43;101418.19;;;17.15;79.42
15263;BME280;7733;51.554;13.590;2022-09-21T12:34:04;101412.72;;;16.86;79.97
15263;BME280;7733;51.554;13.590;2022-09-21T12:36:43;101406.72;;;16.78;79.52
15263;BME280;7733;51.554;13.590;2022-09-21T12:41:59;101424.66;;;16.66;83.03
15263;BME280;7733;51.554;13.590;2022-09-21T12:45:11;101418.19;;;16.78;81.14
15263;BME280;7733;51.554;13.590;2022-09-21T12:50:54;101418.75;;;16.92;82.43
15263;BME280;7733;51.554;13.590;2022-09-21T12:53:25;101409.31;;;17.16;80.78
15263;BME280;7733;51.554;13.590;2022-09-21T12:56:18;101401.91;;;17.64;81.48
15263;BME280;7733;51.554;13.590;2022-09-21T12:59:24;101401.94;;;17.63;77.54
15263;BME280;7733;51.554;13.590;2022-09-21T13:02:41;101392.09;;;17.99;74.94
15263;BME280;7733;51.554;13.590;2022-09-21T13:05:36;101390.91;;;17.46;75.24
15263;BME280;7733;51.554;13.590;2022-09-21T13:08:14;101400.09;;;17.32;72.70
15263;BME280;7733;51.554;13.590;2022-09-21T13:11:00;101398.06;;;17.08;73.80
15263;BME280;7733;51.554;13.590;2022-09-21T13:13:30;101389.19;;;17.09;71.98
15263;BME280;7733;51.554;13.590;2022-09-21T13:15:58;101397.94;;;17.13;74.05
15263;BME280;7733;51.554;13.590;2022-09-21T13:18:38;101397.09;;;17.11;74.33
15263;BME280;7733;51.554;13.590;2022-09-21T13:21:17;101393.97;;;16.93;74.64
15263;BME280;7733;51.554;13.590;2022-09-21T13:23:51;101391.06;;;17.06;75.72
15263;BME280;7733;51.554;13.590;2022-09-21T13:26:40;101388.69;;;16.93;75.05
15263;BME280;7733;51.554;13.590;2022-09-21T13:29:35;101379.69;;;16.99;73.37
15263;BME280;7733;51.554;13.590;2022-09-21T13:32:21;101384.34;;;16.91;72.51
15263;BME280;7733;51.554;13.590;2022-09-21T13:34:47;101386.66;;;17.39;72.37
15263;BME280;7733;51.554;13.590;2022-09-21T13:47:43;101382.16;;;17.08;73.08
15263;BME280;7733;51.554;13.590;2022-09-21T13:50:41;101378.66;;;16.69;73.56
15263;BME280;7733;51.554;13.590;2022-09-21T13:53:20;101372.19;;;16.81;73.32
15263;BME280;7733;51.554;13.590;2022-09-21T13:55:51;101380.41;;;16.70;71.93
15263;BME280;7733;51.554;13.590;2022-09-21T13:58:33;101382.28;;;16.66;73.25
15263;BME280;7733;51.554;13.590;2022-09-21T14:01:12;101375.19;;;16.67;72.40
15263;BME280;7733;51.554;13.590;2022-09-21T14:03:44;101374.97;;;16.76;71.76
15263;BME280;7733;51.554;13.590;2022-09-21T14:06:18;101362.94;;;16.60;72.52
15263;BME280;7733;51.554;13.590;2022-09-21T14:08:54;101372.06;;;16.87;73.17
15263;BME280;7733;51.554;13.590;2022-09-21T14:11:36;101371.75;;;16.62;73.96
15263;BME280;7733;51.554;13.590;2022-09-21T14:14:15;101372.44;;;16.71;73.78
15263;BME280;7733;51.554;13.590;2022-09-21T14:24:42;101357.09;;;17.20;64.35
15263;BME280;7733;51.554;13.590;2022-09-21T14:27:40;101354.63;;;17.12;63.51
15263;BME280;7733;51.554;13.590;2022-09-21T14:30:19;101344.47;;;17.29;63.33
15263;BME280;7733;51.554;13.590;2022-09-21T14:33:27;101354.13;;;17.32;62.42
15263;BME280;7733;51.554;13.590;2022-09-21T14:35:52;101339.09;;;17.32;62.79
15263;BME280;7733;51.554;13.590;2022-09-21T14:38:41;101350.09;;;17.17;63.54
15263;BME280;7733;51.554;13.590;2022-09-21T14:41:14;101350.09;;;17.17;63.87
15263;BME280;7733;51.554;13.590;2022-09-21T14:43:50;101350.69;;;17.28;64.94
15263;BME280;7733;51.554;13.590;2022-09-21T14:49:39;101343.66;;;17.27;65.77
15263;BME280;7733;51.554;13.590;2022-09-21T14:52:34;101348.56;;;17.43;66.25
15263;BME280;7733;51.554;13.590;2022-09-21T14:55:32;101350.34;;;17.08;64.50
15263;BME280;7733;51.554;13.590;2022-09-21T14:59:17;101345.41;;;16.93;66.22
15263;BME280;7733;51.554;13.590;2022-09-21T15:01:37;101341.63;;;16.66;66.29